Latest Weather Observations for Nowra

IDN60901

Issued at 11:01 pm EST Tuesday 21 April 2015 (issued every 10 minutes, with the page automatically refreshed every 10 minutes)

About weather observations | Map of Canberra area stations | Latest observations for Canberra area | Other Formats
Station Details ID: 068072 Name: NOWRA RAN AIR STATION AWS Lat: -34.95 Lon: 150.54 Height: 109.0 m
Data from the previous 72 hours. | See also: Recent months at Nowra
Date/Time
EST
Tmp

°C
App
Tmp
°C
Dew
Point
°C
Rel
Hum
%
Delta-T

°C
Wind Press
QNH
hPa
Press
MSL
hPa
Rain
since
9 am
mm
Dir
 
Spd
km/h
Gust
km/h
Spd
kts
Gust
kts
21/10:30pm 13.7 6.5 13.7 100 0.0 S 44 65 24 35 1019.0 - 26.8
21/10:00pm 13.4 7.8 13.4 100 0.0 S 35 57 19 31 1019.6 - 25.2
21/09:30pm 13.4 7.1 13.4 100 0.0 S 39 65 21 35 1019.7 - 23.6
21/09:00pm 13.1 7.8 13.1 100 0.0 S 33 52 18 28 1020.2 1020.1 21.2
21/08:47pm 12.7 8.2 12.7 100 0.0 S 28 56 15 30 1020.3 - 19.0
21/08:30pm 12.3 8.8 12.3 100 0.0 S 22 30 12 16 1020.2 - 17.2
21/08:00pm 12.5 10.0 12.3 99 0.1 S 17 30 9 16 1020.9 - 13.6
21/07:48pm 12.5 8.7 12.3 99 0.1 S 24 37 13 20 1020.9 - 12.4
21/07:30pm 12.6 8.8 12.4 99 0.1 S 24 39 13 21 1020.7 - 10.6
21/07:13pm 12.7 8.5 12.5 99 0.1 S 26 41 14 22 1020.8 - 9.6
21/07:12pm 12.7 8.2 12.5 99 0.1 S 28 44 15 24 1020.8 - 9.6
21/07:00pm 12.6 8.4 12.4 99 0.1 S 26 35 14 19 1020.9 - 9.2
21/06:30pm 13.0 8.5 12.5 97 0.3 S 28 39 15 21 1020.7 - 8.0
21/05:58pm 13.2 8.5 12.1 93 0.6 S 28 57 15 31 1020.9 - 7.2
21/05:30pm 13.0 7.9 11.9 93 0.6 S 30 44 16 24 1020.9 - 6.2
21/05:11pm 13.1 8.3 11.5 90 0.9 S 28 50 15 27 1021.1 - 5.6
21/05:00pm 13.3 6.6 11.0 86 1.2 SSE 37 54 20 29 1021.0 - 5.2
21/04:54pm 13.8 7.3 10.4 80 1.8 SSE 35 54 19 29 1021.3 - 4.8
21/04:30pm 13.4 10.0 11.1 86 1.2 SSW 20 30 11 16 1020.9 - 4.6
21/04:00pm 13.4 9.4 10.6 83 1.5 S 22 32 12 17 1021.0 - 4.4
21/03:30pm 13.0 8.8 11.2 89 1.0 S 24 35 13 19 1021.2 - 4.4
21/03:00pm 12.8 8.8 11.7 93 0.6 S 24 37 13 20 1021.4 1021.3 4.2
21/02:44pm 13.1 8.6 11.3 89 1.0 S 26 37 14 20 1021.5 - 3.0
21/02:30pm 13.7 8.2 10.5 81 1.7 S 30 44 16 24 1021.4 - 2.2
21/02:00pm 13.9 7.6 11.2 84 1.4 S 35 54 19 29 1021.3 - 2.0
21/01:46pm 13.7 8.1 11.4 86 1.2 S 32 50 17 27 1021.6 - 1.8
21/01:30pm 13.4 7.8 11.5 88 1.0 S 32 48 17 26 1021.6 - 1.8
21/01:00pm 14.2 7.5 9.8 75 2.3 SSE 35 56 19 30 1021.9 - 1.6
21/12:49pm 13.7 8.6 10.5 81 1.7 SSE 28 50 15 27 1022.2 - 1.6
21/12:30pm 14.1 6.6 9.5 74 2.4 SSE 39 56 21 30 1022.6 - 1.2
21/12:06pm 15.0 8.7 8.9 67 3.1 SSE 32 50 17 27 1023.1 - 0.6
21/12:00pm 15.6 9.6 8.6 63 3.6 SSE 30 43 16 23 1023.1 1023.0 0.6
21/11:37am 16.0 9.4 7.7 58 4.2 SSE 32 50 17 27 1023.4 - 0.6
21/11:30am 15.8 8.3 7.8 59 4.0 SSE 37 50 20 27 1023.4 - 0.6
21/11:07am 15.7 10.3 9.4 66 3.3 SSE 28 46 15 25 1023.6 - 0.6
21/11:00am 15.1 10.0 10.7 75 2.3 SSE 28 39 15 21 1023.8 - 0.6
21/10:30am 13.3 9.9 11.4 88 1.0 S 20 28 11 15 1024.2 - 0.4
21/10:00am 12.9 8.1 11.6 92 0.7 SSW 28 35 15 19 1024.3 - 0.2
21/09:30am 13.2 8.7 11.4 89 1.0 SSW 26 35 14 19 1024.7 - 0.2
21/09:00am 13.1 8.9 12.3 95 0.4 S 26 35 14 19 1024.7 1024.5 56.4
21/08:30am 12.4 8.3 11.5 94 0.5 SSW 24 32 13 17 1025.0 - 56.4
21/08:00am 14.0 10.0 10.4 79 1.9 SSW 22 28 12 15 1024.8 - 56.0
21/07:30am 14.5 8.4 9.7 73 2.5 S 32 50 17 27 1024.6 - 55.8
21/07:00am 15.7 8.4 7.0 56 4.3 SSE 35 54 19 29 1024.1 - 55.8
21/06:30am 15.4 9.4 7.2 58 4.1 SSE 28 41 15 22 1024.0 - 55.8
21/05:41am 15.5 8.7 7.8 60 3.9 SSE 33 54 18 29 1023.9 - 55.8
21/05:30am 15.3 8.8 8.3 63 3.5 SSE 32 48 17 26 1024.0 - 55.8
21/05:00am 15.2 9.2 8.7 65 3.3 SSE 30 50 16 27 1024.0 - 55.8
21/04:30am 15.3 8.9 8.5 64 3.5 SSE 32 52 17 28 1023.8 - 55.8
21/04:07am 14.4 7.6 9.2 71 2.7 SE 35 54 19 29 1023.8 - 55.8
21/04:00am 14.7 7.3 8.4 66 3.2 SSE 37 54 20 29 1023.8 - 55.8
21/03:30am 14.9 7.3 9.1 68 3.0 SSE 39 54 21 29 1023.9 - 55.8
21/03:00am 14.9 7.7 9.3 69 2.9 SSE 37 56 20 30 1024.1 1023.9 55.8
21/02:30am 14.6 7.5 9.4 71 2.7 SSE 37 59 20 32 1024.2 - 55.8
21/02:00am 14.0 7.6 10.6 80 1.8 SSE 35 57 19 31 1024.7 - 55.8
21/01:53am 14.1 8.0 10.3 78 2.0 SSE 33 57 18 31 1024.8 - 55.8
21/01:47am 13.9 7.8 9.9 77 2.1 SSE 32 44 17 24 1024.8 - 55.8
21/01:30am 13.7 7.8 11.0 84 1.4 SE 33 48 18 26 1025.2 - 55.8
21/01:28am 13.8 8.1 11.0 83 1.5 SE 32 48 17 26 1025.3 - 55.6
21/01:00am 13.9 10.0 10.9 82 1.6 SSE 22 35 12 19 1025.3 - 55.2
21/12:51am 13.6 8.9 10.8 83 1.5 SSE 26 46 14 25 1025.4 - 55.2
21/12:32am 13.9 8.1 10.9 82 1.6 SSE 32 61 17 33 1025.6 - 55.0
21/12:30am 14.7 9.3 10.9 78 2.0 SSE 30 44 16 24 1025.5 - 54.6
21/12:01am 13.6 7.0 11.3 86 1.2 S 37 52 20 28 1025.4 - 54.6
 
Date/Time
EST
Tmp

°C
App
Tmp
°C
Dew
Point
°C
Rel
Hum
%
Delta-T

°C
Wind Press
QNH
hPa
Press
MSL
hPa
Rain
since
9 am
mm
Dir
 
Spd
km/h
Gust
km/h
Spd
kts
Gust
kts
20/11:38pm 13.6 9.2 11.8 89 1.0 SSE 26 44 14 24 1025.8 - 54.6
20/11:30pm 13.9 8.6 11.1 83 1.5 SSE 30 44 16 24 1026.0 - 54.4
20/11:26pm 14.1 8.3 10.9 81 1.7 S 32 48 17 26 1025.8 - 54.4
20/11:19pm 14.0 8.8 11.5 85 1.3 SSE 30 48 16 26 1025.9 - 54.4
20/11:00pm 13.3 8.5 11.5 89 1.0 S 28 41 15 22 1026.0 - 54.0
20/10:48pm 13.2 8.0 11.6 90 0.9 SSE 30 48 16 26 1026.2 - 54.0
20/10:30pm 13.1 7.1 12.0 93 0.6 SSE 35 52 19 28 1026.4 - 53.6
20/10:07pm 13.7 7.9 10.9 83 1.5 SSE 32 50 17 27 1026.6 - 53.2
20/10:00pm 13.8 8.4 11.0 83 1.5 SSE 30 52 16 28 1026.7 - 53.2
20/09:57pm 13.8 8.4 11.0 83 1.5 SSE 30 52 16 28 1026.8 - 53.2
20/09:47pm 13.7 9.3 11.7 88 1.1 SSE 26 41 14 22 1026.9 - 53.2
20/09:30pm 13.3 9.7 13.0 98 0.2 SSE 24 35 13 19 1027.1 - 53.2
20/09:01pm 13.2 7.3 12.3 94 0.5 SSE 35 54 19 29 1026.8 - 52.4
20/09:00pm 13.2 6.9 12.4 95 0.4 SSE 37 54 20 29 1026.8 1026.7 52.4
20/08:45pm 13.8 8.7 12.0 89 1.0 S 30 50 16 27 1026.5 - 51.8
20/08:40pm 14.1 9.4 12.1 88 1.1 SSE 28 39 15 21 1026.5 - 51.6
20/08:37pm 14.3 9.6 12.0 86 1.2 SSE 28 46 15 25 1026.4 - 51.6
20/08:30pm 14.5 8.9 12.0 85 1.4 SSE 33 46 18 25 1026.4 - 51.6
20/08:14pm 14.4 9.0 12.8 90 0.9 SSE 33 54 18 29 1026.2 - 51.6
20/08:08pm 14.1 8.8 13.1 94 0.6 SSE 33 46 18 25 1026.1 - 51.6
20/08:00pm 14.0 8.7 13.2 95 0.4 SSE 33 48 18 26 1026.0 - 51.6
20/07:52pm 13.8 9.1 13.3 97 0.3 SSE 30 48 16 26 1025.8 - 51.6
20/07:30pm 13.2 8.7 12.6 96 0.3 SSE 28 39 15 21 1026.0 - 51.2
20/07:19pm 13.0 8.2 12.8 99 0.1 SSE 30 50 16 27 1026.0 - 51.2
20/07:00pm 13.0 6.2 13.0 100 0.0 S 41 56 22 30 1026.2 - 50.8
20/06:46pm 13.0 6.5 12.8 99 0.1 SSE 39 57 21 31 1026.4 - 50.2
20/06:43pm 12.9 6.0 12.7 99 0.1 S 41 57 22 31 1026.2 - 50.0
20/06:39pm 12.9 6.3 12.7 99 0.1 S 39 57 21 31 1026.0 - 49.8
20/06:30pm 12.9 7.2 12.9 100 0.0 S 35 52 19 28 1025.8 - 49.4
20/06:07pm 12.9 5.6 12.9 100 0.0 S 43 61 23 33 1026.0 - 48.0
20/06:00pm 13.1 6.3 13.1 100 0.0 S 41 57 22 31 1025.9 1025.8 47.4
20/05:30pm 13.1 6.7 13.1 100 0.0 S 39 57 21 31 1025.5 - 45.2
20/05:08pm 13.1 6.7 13.1 100 0.0 S 39 59 21 32 1025.4 - 42.6
20/05:00pm 13.1 6.7 13.1 100 0.0 S 39 50 21 27 1025.5 - 41.4
20/04:30pm 13.1 6.3 13.1 100 0.0 S 41 59 22 32 1025.5 - 37.0
20/04:00pm 12.8 6.6 12.8 100 0.0 S 37 54 20 29 1025.4 - 33.0
20/03:30pm 13.1 6.2 12.9 99 0.1 S 41 63 22 34 1025.3 - 29.4
20/03:00pm 13.0 5.2 13.0 100 0.0 S 46 65 25 35 1025.0 1024.9 27.4
20/02:30pm 13.0 6.5 13.0 100 0.0 S 39 65 21 35 1024.6 - 23.8
20/02:00pm 13.2 7.6 13.2 100 0.0 S 35 57 19 31 1025.0 - 20.8
20/01:30pm 13.1 8.7 12.9 99 0.1 S 28 37 15 20 1025.8 - 16.4
20/01:17pm 13.2 8.8 13.0 99 0.1 S 28 35 15 19 1026.1 - 14.0
20/01:00pm 13.2 9.6 13.0 99 0.1 S 24 39 13 21 1025.9 - 12.4
20/12:30pm 12.6 8.0 12.4 99 0.1 S 28 37 15 20 1025.6 - 10.0
20/12:00pm 12.3 7.6 12.1 99 0.1 SSW 28 41 15 22 1025.8 1025.7 8.2
20/11:30am 12.2 6.7 12.0 99 0.1 SSW 32 43 17 23 1026.5 - 7.2
20/11:10am 11.9 7.1 11.7 99 0.1 SSW 28 35 15 19 1026.8 - 5.8
20/11:00am 12.2 7.1 12.0 99 0.1 S 30 39 16 21 1026.9 - 5.4
20/10:30am 11.7 7.2 11.5 99 0.1 S 26 35 14 19 1027.5 - 4.4
20/10:09am 11.7 6.9 11.5 99 0.1 S 28 44 15 24 1027.2 - 4.0
20/10:00am 11.8 6.2 11.6 99 0.1 S 32 44 17 24 1027.0 - 3.8
20/09:30am 11.6 6.7 11.4 99 0.1 S 28 46 15 25 1027.2 - 1.4
20/09:23am 11.6 6.7 11.4 99 0.1 S 28 46 15 25 1027.3 - 1.4
20/09:00am 11.2 6.2 11.0 99 0.1 SSW 28 44 15 24 1027.4 1027.3 12.8
20/08:30am 11.1 5.7 10.9 99 0.1 S 30 41 16 22 1027.2 - 11.4
20/08:08am 11.2 5.4 10.7 97 0.3 S 32 50 17 27 1027.3 - 10.8
20/08:00am 11.0 5.1 10.5 97 0.3 S 32 43 17 23 1027.4 - 10.8
20/07:30am 10.6 4.7 10.3 98 0.2 SSW 32 43 17 23 1026.7 - 10.0
20/07:00am 10.4 4.2 9.9 97 0.3 SSW 33 50 18 27 1026.6 - 8.4
20/06:30am 10.3 3.2 9.4 94 0.5 SSW 37 57 20 31 1026.5 - 6.0
20/06:00am 10.4 5.4 9.5 94 0.4 S 26 43 14 23 1026.3 1026.2 4.8
20/05:30am 10.5 5.0 9.1 91 0.7 S 28 39 15 21 1026.0 - 4.2
20/05:00am 10.6 4.4 9.2 91 0.7 SSW 32 48 17 26 1025.5 - 3.8
20/04:49am 10.9 4.6 9.0 88 0.9 SSW 32 50 17 27 1025.5 - 3.8
20/04:30am 11.0 4.3 8.2 83 1.4 SSW 33 50 18 27 1025.5 - 3.6
20/04:05am 10.6 4.1 8.2 85 1.2 SSW 32 50 17 27 1025.7 - 3.6
20/04:00am 10.6 3.9 8.2 85 1.2 SSW 33 50 18 27 1025.8 - 3.6
20/03:59am 10.5 4.0 8.1 85 1.2 SSW 32 50 17 27 1025.8 - 3.6
20/03:30am 11.0 5.1 7.3 78 1.8 SW 28 43 15 23 1025.4 - 3.4
20/03:00am 10.9 4.5 6.8 76 1.9 SSW 30 44 16 24 1025.0 1024.9 3.4
20/02:30am 11.0 4.1 7.1 77 1.9 SSW 33 56 18 30 1026.1 - 3.4
20/02:23am 11.0 4.0 6.7 75 2.0 SSW 33 56 18 30 1026.3 - 3.4
20/02:00am 11.0 4.6 6.9 76 2.0 SSW 30 41 16 22 1026.2 - 3.4
20/01:30am 10.6 5.5 7.7 82 1.4 SW 24 35 13 19 1026.5 - 3.4
20/01:00am 10.6 5.0 7.3 80 1.6 SSW 26 41 14 22 1026.7 - 3.4
20/12:30am 10.6 4.6 6.9 78 1.8 SSW 28 39 15 21 1026.8 - 3.4
20/12:22am 10.7 4.8 7.4 80 1.6 SSW 28 46 15 25 1026.9 - 3.4
20/12:00am 10.7 6.3 7.6 81 1.5 SSW 20 30 11 16 1027.2 1027.1 3.2
 
Date/Time
EST
Tmp

°C
App
Tmp
°C
Dew
Point
°C
Rel
Hum
%
Delta-T

°C
Wind Press
QNH
hPa
Press
MSL
hPa
Rain
since
9 am
mm
Dir
 
Spd
km/h
Gust
km/h
Spd
kts
Gust
kts
19/11:30pm 10.7 7.0 7.9 83 1.4 SW 17 22 9 12 1027.1 - 3.2
19/11:00pm 10.8 6.9 8.6 86 1.1 SSW 19 30 10 16 1026.7 - 3.0
19/10:30pm 11.0 8.6 8.6 85 1.2 SSW 11 17 6 9 1027.2 - 2.8
19/10:00pm 11.2 8.1 8.9 86 1.1 SSW 15 20 8 11 1026.8 - 2.6
19/09:30pm 11.2 7.8 9.3 88 1.0 SSW 17 22 9 12 1026.8 - 2.6
19/09:00pm 11.7 7.8 9.3 85 1.2 SSW 20 26 11 14 1026.6 1026.5 2.4
19/08:30pm 12.1 8.8 8.2 77 1.9 SSW 15 20 8 11 1025.9 - 1.8
19/08:00pm 11.2 9.4 9.6 90 0.8 W 9 13 5 7 1025.6 - 1.8
19/07:30pm 11.0 9.3 9.8 92 0.6 NNW 9 11 5 6 1025.5 - 1.8
19/07:00pm 11.3 9.4 9.0 86 1.2 W 9 11 5 6 1025.1 - 1.8
19/06:30pm 10.9 8.6 9.0 88 0.9 WSW 11 15 6 8 1024.7 - 1.8
19/06:00pm 10.9 7.8 8.7 86 1.1 SSW 15 20 8 11 1024.5 1024.3 1.6
19/05:30pm 11.2 7.4 9.1 87 1.1 SSW 19 30 10 16 1024.2 - 1.2
19/05:00pm 11.1 7.2 8.7 85 1.2 SW 19 26 10 14 1023.8 - 1.0
19/04:30pm 11.3 7.6 10.0 92 0.7 SW 20 28 11 15 1023.3 - 1.0
19/04:00pm 11.7 8.6 10.3 91 0.7 SSW 17 30 9 16 1022.8 - 0.4
19/03:30pm 12.0 7.8 9.9 87 1.1 S 22 33 12 18 1022.1 - 0.4
19/03:00pm 12.8 9.1 11.5 92 0.7 SSW 22 30 12 16 1021.7 1021.6 0.4
19/02:30pm 13.1 8.5 11.0 87 1.1 SSW 26 33 14 18 1021.4 - 0.4
19/02:00pm 14.6 10.9 10.2 75 2.3 S 20 30 11 16 1021.1 - 0.2
19/01:30pm 16.0 11.5 9.9 67 3.2 S 24 35 13 19 1020.5 - 0.2
19/01:00pm 16.5 11.9 9.7 64 3.6 S 24 35 13 19 1020.3 - 0.2
19/12:30pm 17.0 12.8 11.1 68 3.2 S 24 32 13 17 1020.2 - 0.2
19/12:00pm 16.7 13.1 12.0 74 2.6 S 22 32 12 17 1020.3 1020.2 0.2
19/11:30am 16.3 14.4 13.0 81 1.8 S 15 20 8 11 1020.5 - 0.2
19/11:07am 15.8 13.9 14.3 91 0.9 S 17 24 9 13 1020.4 - 0.2
19/11:00am 15.6 14.5 14.3 92 0.7 SSE 13 20 7 11 1020.4 - 0.2
19/10:42am 15.6 14.1 14.3 92 0.7 SSW 15 19 8 10 1020.3 - 0.2
19/10:30am 15.9 13.9 13.9 88 1.1 SW 17 20 9 11 1020.2 - 0.2
19/10:00am 16.3 13.8 14.0 86 1.3 S 20 28 11 15 1019.8 - 0.2
19/09:30am 16.3 14.1 14.5 89 1.0 S 19 24 10 13 1019.5 - 0.2
19/09:22am 16.3 14.1 14.3 88 1.1 S 19 24 10 13 1019.5 - 0.2
19/09:02am 17.0 14.0 12.7 76 2.4 SSW 20 24 11 13 1019.3 - 0.0
19/09:00am 17.2 15.6 12.7 75 2.5 WSW 13 20 7 11 1019.2 1019.1 3.8
19/08:30am 17.0 15.2 12.1 73 2.7 W 13 17 7 9 1018.6 - 3.8
19/08:00am 16.6 14.8 12.2 75 2.4 WNW 13 19 7 10 1018.1 - 3.8
19/07:30am 16.4 14.8 12.9 80 2.0 WNW 13 17 7 9 1017.8 - 3.8
19/07:00am 16.8 15.0 13.3 80 2.0 W 15 17 8 9 1017.0 - 3.8
19/06:30am 16.8 14.9 13.1 79 2.1 W 15 19 8 10 1016.5 - 3.8
19/06:00am 16.7 14.7 13.8 83 1.6 WSW 17 22 9 12 1015.7 1015.5 3.8
19/05:30am 14.4 13.5 13.8 96 0.3 SSW 11 13 6 7 1015.1 - 3.8
19/05:00am 15.3 14.9 14.2 93 0.6 WSW 9 13 5 7 1014.5 - 3.8
19/04:30am 16.2 15.1 14.4 89 1.0 W 13 15 7 8 1014.1 - 3.8
19/04:00am 16.6 16.2 14.1 85 1.4 W 9 11 5 6 1013.8 - 3.8
19/03:30am 18.0 16.5 14.1 78 2.2 WNW 15 19 8 10 1013.7 - 3.8
19/03:00am 18.4 17.9 13.9 75 2.6 W 9 15 5 8 1013.6 1013.4 3.8
19/02:30am 18.6 18.8 14.1 75 2.6 WSW 6 15 3 8 1013.4 - 3.8
19/02:00am 18.6 18.8 14.3 76 2.5 NW 6 15 3 8 1012.8 - 3.8
19/01:30am 18.6 16.8 14.5 77 2.4 NW 17 26 9 14 1012.9 - 3.8
19/01:00am 18.4 17.0 15.5 83 1.7 NW 17 20 9 11 1012.9 - 3.8
19/12:30am 18.6 17.8 16.0 85 1.6 NW 15 20 8 11 1013.1 - 3.8
19/12:00am 18.3 18.3 17.3 94 0.6 N 13 17 7 9 1013.4 1013.2 3.8
 
Date/Time
EST
Tmp

°C
App
Tmp
°C
Dew
Point
°C
Rel
Hum
%
Delta-T

°C
Wind Press
QNH
hPa
Press
MSL
hPa
Rain
since
9 am
mm
Dir
 
Spd
km/h
Gust
km/h
Spd
kts
Gust
kts
18/11:30pm 18.7 18.5 16.7 88 1.2 NW 13 17 7 9 1013.5 - 3.8

Latest Capital City Observations: Canberra | Sydney | Melbourne | Brisbane | Adelaide | Perth | Hobart | Darwin

Other Formats:

Comma delimited format used in spreadsheet applications
http://www.bom.gov.au/fwo/IDN60903/IDN60903.94750.axf

JavaScript Object Notation format (JSON) in row-major order
http://www.bom.gov.au/fwo/IDN60903/IDN60903.94750.json